createdAt,value
2023-08-08T00:00:28.338Z,65.17
2023-08-08T00:03:01.246Z,64.80
2023-08-08T00:05:34.210Z,64.57
2023-08-08T00:08:07.899Z,65.45
2023-08-08T00:10:49.856Z,65.10
2023-08-08T00:13:22.846Z,65.03
2023-08-08T00:15:55.520Z,65.08
2023-08-08T00:18:43.635Z,65.11
2023-08-08T00:21:16.549Z,64.56
2023-08-08T00:23:58.332Z,64.74
2023-08-08T00:26:31.074Z,65.18
2023-08-08T00:29:16.015Z,65.49
2023-08-08T00:31:58.475Z,64.89
2023-08-08T00:34:31.523Z,65.31
2023-08-08T00:37:07.330Z,65.30
2023-08-08T00:39:40.458Z,65.14
2023-08-08T00:42:19.357Z,65.13
2023-08-08T00:44:52.151Z,65.07
2023-08-08T00:47:35.960Z,65.07
2023-08-08T00:55:45.092Z,64.77
2023-08-08T00:58:23.623Z,65.11
2023-08-08T01:01:05.334Z,64.93
2023-08-08T01:03:38.089Z,64.95
2023-08-08T01:06:50.767Z,65.07
2023-08-08T01:09:48.526Z,64.97
2023-08-08T01:15:10.547Z,64.63
2023-08-08T01:17:54.083Z,65.35
2023-08-08T01:20:27.156Z,64.59
2023-08-08T01:23:43.711Z,64.50
2023-08-08T01:26:16.737Z,65.23
2023-08-08T01:28:55.843Z,64.90
2023-08-08T01:31:28.516Z,64.89
2023-08-08T01:34:10.736Z,65.10
2023-08-08T01:37:21.657Z,65.34
2023-08-08T01:40:00.752Z,64.58
2023-08-08T01:45:22.081Z,64.60
2023-08-08T01:48:09.395Z,65.28
2023-08-08T01:53:50.642Z,65.17
2023-08-08T01:56:23.476Z,64.77
2023-08-08T01:59:07.305Z,65.04
2023-08-08T02:01:40.017Z,64.92
2023-08-08T02:04:19.008Z,64.55
2023-08-08T02:07:00.115Z,64.61
2023-08-08T02:09:47.054Z,65.00
2023-08-08T02:12:32.210Z,64.98
2023-08-08T02:15:05.787Z,65.24
2023-08-08T02:17:40.200Z,64.91
2023-08-08T02:20:13.272Z,64.75
2023-08-08T02:22:45.999Z,65.07
2023-08-08T02:25:27.589Z,64.72
2023-08-08T02:30:47.195Z,64.56
2023-08-08T02:33:28.587Z,65.01
2023-08-08T02:36:01.288Z,65.39
2023-08-08T02:38:46.429Z,64.95
2023-08-08T02:41:22.136Z,64.78
2023-08-08T02:43:54.803Z,65.05
2023-08-08T02:46:39.390Z,65.35
2023-08-08T02:49:12.039Z,65.15
2023-08-08T02:51:53.334Z,65.39
2023-08-08T02:54:26.039Z,65.10
2023-08-08T02:56:58.699Z,65.14
2023-08-08T02:59:45.760Z,65.18
2023-08-08T03:02:18.396Z,65.87
2023-08-08T03:04:51.329Z,64.66
2023-08-08T03:07:38.654Z,65.02
2023-08-08T03:10:29.251Z,64.92
2023-08-08T03:13:13.991Z,65.23
2023-08-08T03:15:46.875Z,65.07
2023-08-08T03:18:29.294Z,65.02
2023-08-08T03:21:02.062Z,64.87
2023-08-08T03:23:43.096Z,64.89
2023-08-08T03:29:02.338Z,64.52
2023-08-08T03:31:35.020Z,65.50
2023-08-08T03:34:07.649Z,64.71
2023-08-08T03:36:43.556Z,65.25
2023-08-08T03:39:16.450Z,64.87
2023-08-08T03:41:49.062Z,64.97
2023-08-08T03:44:21.766Z,65.21
2023-08-08T03:47:02.275Z,64.69
2023-08-08T03:49:42.469Z,65.07
2023-08-08T03:52:15.560Z,64.98
2023-08-08T03:54:48.560Z,64.87
2023-08-08T03:57:36.528Z,65.37
2023-08-08T04:00:24.901Z,65.43
2023-08-08T04:02:57.747Z,65.05
2023-08-08T04:05:47.485Z,65.06
2023-08-08T04:11:06.698Z,65.07
2023-08-08T04:13:54.145Z,64.65
2023-08-08T04:16:27.147Z,64.69
2023-08-08T04:19:05.529Z,65.02
2023-08-08T04:21:38.199Z,64.88
2023-08-08T04:24:23.136Z,65.36
2023-08-08T04:26:55.781Z,65.38
2023-08-08T04:29:28.478Z,65.29
2023-08-08T04:32:01.491Z,65.54
2023-08-08T04:34:43.567Z,64.96
2023-08-08T04:37:16.208Z,64.97
2023-08-08T04:40:18.414Z,65.04
2023-08-08T04:42:51.923Z,65.22
2023-08-08T04:45:30.771Z,65.14
2023-08-08T04:48:03.708Z,65.27
2023-08-08T04:50:36.445Z,65.23
2023-08-08T04:53:09.137Z,65.42
2023-08-08T04:55:50.832Z,65.55
2023-08-08T04:58:23.723Z,65.03
2023-08-08T05:01:05.332Z,65.18
2023-08-08T05:03:38.267Z,65.07
2023-08-08T05:06:23.130Z,65.44
2023-08-08T05:09:12.697Z,64.85
2023-08-08T05:11:45.448Z,64.88
2023-08-08T05:14:30.517Z,65.36
2023-08-08T05:17:15.134Z,65.01
2023-08-08T05:22:34.342Z,65.09
2023-08-08T05:25:13.196Z,65.03
2023-08-08T05:27:45.887Z,65.50
2023-08-08T05:30:27.926Z,65.45
2023-08-08T05:33:00.702Z,65.19
2023-08-08T05:35:45.308Z,65.03
2023-08-08T05:38:18.088Z,64.87
2023-08-08T05:40:59.784Z,65.09
2023-08-08T05:43:32.490Z,65.34
2023-08-08T05:46:17.075Z,64.79
2023-08-08T05:48:49.930Z,65.41
2023-08-08T05:51:22.714Z,65.00
2023-08-08T05:53:55.526Z,65.38
2023-08-08T05:56:50.084Z,65.32
2023-08-08T05:59:22.717Z,64.68
2023-08-08T06:02:05.399Z,65.06
2023-08-08T06:04:38.260Z,65.16
2023-08-08T06:07:11.123Z,64.95
2023-08-08T06:09:52.891Z,65.37
2023-08-08T06:12:25.716Z,65.43
2023-08-08T06:14:58.452Z,65.15
2023-08-08T06:17:38.304Z,65.01
2023-08-08T06:22:58.110Z,65.49
2023-08-08T06:25:40.216Z,64.90
2023-08-08T06:28:13.154Z,64.78
2023-08-08T06:31:03.773Z,64.53
2023-08-08T06:33:36.436Z,65.19
2023-08-08T06:36:18.584Z,65.00
2023-08-08T06:41:39.486Z,65.48
2023-08-08T06:44:21.178Z,64.93
2023-08-08T06:46:53.811Z,65.38
2023-08-08T06:49:35.974Z,65.25
2023-08-08T06:54:55.322Z,65.11
2023-08-08T06:57:35.957Z,65.57
2023-08-08T07:00:23.935Z,64.90
2023-08-08T07:03:01.248Z,65.18
2023-08-08T07:05:48.914Z,64.87
2023-08-08T07:11:20.175Z,64.88
2023-08-08T07:13:58.927Z,64.93
2023-08-08T07:16:37.447Z,65.04
2023-08-08T07:19:12.820Z,65.33
2023-08-08T07:21:48.974Z,64.87
2023-08-08T07:24:21.628Z,65.47
2023-08-08T07:26:54.568Z,64.58
2023-08-08T07:29:33.450Z,65.13
2023-08-08T07:32:33.251Z,64.98
2023-08-08T07:35:18.752Z,65.04
2023-08-08T07:37:51.475Z,64.89
2023-08-08T07:40:24.247Z,64.80
2023-08-08T07:43:08.961Z,64.99
2023-08-08T07:45:43.896Z,64.89
2023-08-08T07:48:18.827Z,64.73
2023-08-08T07:50:51.505Z,64.57
2023-08-08T07:53:27.220Z,65.07
2023-08-08T07:55:59.896Z,65.00
2023-08-08T07:58:34.053Z,64.96
2023-08-08T08:01:31.931Z,64.55
2023-08-08T08:04:13.869Z,64.93
2023-08-08T08:06:46.510Z,64.55
2023-08-08T08:09:31.501Z,65.12
2023-08-08T08:12:04.741Z,64.89
2023-08-08T08:14:40.736Z,64.77
2023-08-08T08:17:13.409Z,64.77
2023-08-08T08:19:46.050Z,65.20
2023-08-08T08:22:34.060Z,64.88
2023-08-08T08:25:10.162Z,64.80
2023-08-08T08:27:51.483Z,64.82
2023-08-08T08:30:26.615Z,64.54
2023-08-08T08:33:02.101Z,64.74
2023-08-08T08:35:36.486Z,64.91
2023-08-08T08:38:12.018Z,65.29
2023-08-08T08:40:48.356Z,64.82
2023-08-08T08:43:23.990Z,64.86
2023-08-08T08:45:58.562Z,64.98
2023-08-08T08:48:32.629Z,64.91
2023-08-08T08:51:20.549Z,64.63
2023-08-08T08:53:53.347Z,64.45
2023-08-08T08:56:26.974Z,64.80
2023-08-08T08:59:11.827Z,65.06
2023-08-08T09:02:01.341Z,64.62
2023-08-08T09:04:49.926Z,64.94
2023-08-08T09:07:42.821Z,64.83
2023-08-08T09:10:19.977Z,64.30
2023-08-08T09:12:52.837Z,64.59
2023-08-08T09:15:25.495Z,64.42
2023-08-08T09:18:04.362Z,64.37
2023-08-08T09:20:37.044Z,64.49
2023-08-08T09:23:10.499Z,64.92
2023-08-08T09:25:43.244Z,64.92
2023-08-08T09:28:25.202Z,64.64
2023-08-08T09:31:10.135Z,64.81
2023-08-08T09:36:34.310Z,64.27
2023-08-08T09:39:08.450Z,64.37
2023-08-08T09:44:44.080Z,64.36
2023-08-08T09:47:23.464Z,64.39
2023-08-08T09:50:11.656Z,64.88
2023-08-08T09:52:45.264Z,64.83
2023-08-08T09:55:19.767Z,64.50
2023-08-08T09:58:14.746Z,64.06
2023-08-08T10:00:51.845Z,64.53
2023-08-08T10:03:39.114Z,64.44
2023-08-08T10:06:12.487Z,64.54
2023-08-08T10:09:11.664Z,64.12
2023-08-08T10:11:46.234Z,64.17
2023-08-08T10:14:19.032Z,64.24
2023-08-08T10:16:51.771Z,64.78
2023-08-08T10:19:37.170Z,63.99
2023-08-08T10:24:57.380Z,64.55
2023-08-08T10:27:50.597Z,64.00
2023-08-08T10:31:28.922Z,63.94
2023-08-08T10:34:22.889Z,64.07
2023-08-08T10:40:20.605Z,64.23
2023-08-08T10:43:13.878Z,64.20
2023-08-08T10:46:14.017Z,63.93
2023-08-08T10:49:06.905Z,64.09
2023-08-08T10:51:55.423Z,63.76
2023-08-08T10:54:34.526Z,64.41
2023-08-08T10:57:17.751Z,64.05
2023-08-08T10:59:50.558Z,63.91
2023-08-08T11:02:24.427Z,64.30
2023-08-08T11:05:08.302Z,64.53
2023-08-08T11:07:58.214Z,64.35
2023-08-08T11:10:52.885Z,64.41
2023-08-08T11:13:39.934Z,64.08
2023-08-08T11:16:12.661Z,64.71
2023-08-08T11:18:57.431Z,63.74
2023-08-08T11:21:30.279Z,63.94
2023-08-08T11:24:07.664Z,64.20
2023-08-08T11:27:00.398Z,64.51
2023-08-08T11:29:51.994Z,64.13
2023-08-08T11:32:41.742Z,64.20
2023-08-08T11:35:40.962Z,63.75
2023-08-08T11:38:15.296Z,63.59
2023-08-08T11:40:51.223Z,63.85
2023-08-08T11:46:13.534Z,63.89
2023-08-08T11:49:07.606Z,63.90
2023-08-08T11:51:49.894Z,64.36
2023-08-08T11:54:39.316Z,63.70
2023-08-08T11:57:12.513Z,64.56
2023-08-08T11:59:51.766Z,64.20
2023-08-08T12:02:44.678Z,64.11
2023-08-08T12:05:39.419Z,64.29
2023-08-08T12:08:25.090Z,63.50
2023-08-08T12:11:10.780Z,64.04
2023-08-08T12:14:01.596Z,63.42
2023-08-08T12:16:50.049Z,64.26
2023-08-08T12:19:26.445Z,63.98
2023-08-08T12:22:06.045Z,63.17
2023-08-08T12:24:51.335Z,63.81
2023-08-08T12:27:27.411Z,63.57
2023-08-08T12:30:00.235Z,63.73
2023-08-08T12:32:39.239Z,63.87
2023-08-08T12:35:11.912Z,63.75
2023-08-08T12:41:15.956Z,63.71
2023-08-08T12:46:35.439Z,63.61
2023-08-08T12:49:22.354Z,63.25
2023-08-08T12:55:10.050Z,63.52
2023-08-08T12:57:42.724Z,63.51
2023-08-08T13:00:18.876Z,63.86
2023-08-08T13:02:51.674Z,63.48
2023-08-08T13:05:24.600Z,63.71
2023-08-08T13:07:57.299Z,63.17
2023-08-08T13:10:33.947Z,63.13
2023-08-08T13:13:07.079Z,63.59
2023-08-08T13:15:48.990Z,63.81
2023-08-08T13:18:21.758Z,63.20
2023-08-08T13:21:02.788Z,63.41
2023-08-08T13:23:35.478Z,63.13
2023-08-08T13:26:08.212Z,63.08
2023-08-08T13:28:50.998Z,62.82
2023-08-08T13:31:36.301Z,63.19
2023-08-08T13:34:09.070Z,63.18
2023-08-08T13:36:56.789Z,63.96
2023-08-08T13:39:47.517Z,63.40
2023-08-08T13:42:20.250Z,63.23
2023-08-08T13:45:02.191Z,63.16
2023-08-08T13:47:47.239Z,63.32
2023-08-08T13:50:19.922Z,62.80
2023-08-08T13:53:00.885Z,63.27
2023-08-08T13:55:51.532Z,63.72
2023-08-08T13:58:33.338Z,63.02
2023-08-08T14:01:07.707Z,63.31
2023-08-08T14:03:49.863Z,63.73
2023-08-08T14:06:22.596Z,63.17
2023-08-08T14:09:01.548Z,63.10
2023-08-08T14:11:34.433Z,63.43
2023-08-08T14:14:19.100Z,62.94
2023-08-08T14:16:56.381Z,62.85
2023-08-08T14:19:29.136Z,63.00
2023-08-08T14:22:02.076Z,62.90
2023-08-08T14:24:50.656Z,62.66
2023-08-08T14:27:27.755Z,63.11
2023-08-08T14:30:14.901Z,63.20
2023-08-08T14:32:47.644Z,62.95
2023-08-08T14:35:20.934Z,63.17
2023-08-08T14:38:03.139Z,63.05
2023-08-08T14:40:44.969Z,63.08
2023-08-08T14:43:29.875Z,62.60
2023-08-08T14:46:02.754Z,62.87
2023-08-08T14:48:38.213Z,63.08
2023-08-08T14:51:22.431Z,62.51
2023-08-08T14:54:07.442Z,63.22
2023-08-08T14:56:40.209Z,62.34
2023-08-08T14:59:16.333Z,63.44
2023-08-08T15:01:49.278Z,62.66
2023-08-08T15:04:47.056Z,63.04
2023-08-08T15:07:20.342Z,62.45
2023-08-08T15:10:04.823Z,63.14
2023-08-08T15:12:53.148Z,62.92
2023-08-08T15:15:30.522Z,62.41
2023-08-08T15:18:18.429Z,62.94
2023-08-08T15:21:03.545Z,62.60
2023-08-08T15:23:49.614Z,62.95
2023-08-08T15:26:34.479Z,62.59
2023-08-08T15:31:46.458Z,62.34
2023-08-08T15:34:37.458Z,62.65
2023-08-08T15:37:33.831Z,63.10
2023-08-08T15:40:09.856Z,62.68
2023-08-08T15:42:57.463Z,62.33
2023-08-08T15:45:44.659Z,62.95
2023-08-08T15:48:23.192Z,62.78
2023-08-08T15:50:56.201Z,62.67
2023-08-08T15:53:38.011Z,62.69
2023-08-08T15:56:16.959Z,62.91
2023-08-08T15:58:49.705Z,62.42
2023-08-08T16:01:22.438Z,62.77
2023-08-08T16:03:55.299Z,62.71
2023-08-08T16:06:30.299Z,62.54
2023-08-08T16:12:04.062Z,62.61
2023-08-08T16:14:51.882Z,62.97
2023-08-08T16:17:24.710Z,62.23
2023-08-08T16:20:10.169Z,62.28
2023-08-08T16:23:00.993Z,62.29
2023-08-08T16:25:48.875Z,63.23
2023-08-08T16:28:33.613Z,62.30
2023-08-08T16:31:15.481Z,63.21
2023-08-08T16:33:48.475Z,61.94
2023-08-08T16:36:22.315Z,62.61
2023-08-08T16:39:17.619Z,62.56
2023-08-08T16:44:48.215Z,62.54
2023-08-08T16:47:28.989Z,62.74
2023-08-08T16:50:05.572Z,62.65
2023-08-08T16:52:47.584Z,62.95
2023-08-08T16:55:35.169Z,62.53
2023-08-08T16:58:16.569Z,62.20
2023-08-08T17:00:49.574Z,62.66
2023-08-08T17:03:39.727Z,62.76
2023-08-08T17:06:21.791Z,63.04
2023-08-08T17:09:13.458Z,62.95
2023-08-08T17:11:49.436Z,62.47
2023-08-08T17:14:22.454Z,62.30
2023-08-08T17:20:31.721Z,63.03
2023-08-08T17:23:14.016Z,62.84
2023-08-08T17:25:46.783Z,62.82
2023-08-08T17:28:30.968Z,62.94
2023-08-08T17:31:15.327Z,62.42
2023-08-08T17:34:12.649Z,62.70
2023-08-08T17:36:45.338Z,62.76
2023-08-08T17:39:34.387Z,62.86
2023-08-08T17:42:12.779Z,62.79
2023-08-08T17:45:00.361Z,62.79
2023-08-08T17:47:44.097Z,62.32
2023-08-08T17:50:16.823Z,62.75
2023-08-08T17:53:01.125Z,62.40
2023-08-08T17:55:39.820Z,61.88
2023-08-08T17:58:25.394Z,62.27
2023-08-08T18:00:58.218Z,62.96
2023-08-08T18:03:31.062Z,62.73
2023-08-08T18:06:05.050Z,62.98
2023-08-08T18:08:49.803Z,62.68
2023-08-08T18:14:11.933Z,63.18
2023-08-08T18:16:59.310Z,62.50
2023-08-08T18:19:38.071Z,62.82
2023-08-08T18:22:29.193Z,63.38
2023-08-08T18:25:11.667Z,63.52
2023-08-08T18:27:56.555Z,63.47
2023-08-08T18:30:29.396Z,63.43
2023-08-08T18:33:03.559Z,63.93
2023-08-08T18:35:36.401Z,63.14
2023-08-08T18:38:09.807Z,63.32
2023-08-08T18:40:52.328Z,63.26
2023-08-08T18:43:37.316Z,63.30
2023-08-08T18:46:10.052Z,63.40
2023-08-08T18:48:45.586Z,64.04
2023-08-08T18:51:24.293Z,63.69
2023-08-08T18:53:56.993Z,63.70
2023-08-08T18:56:41.696Z,63.22
2023-08-08T18:59:14.507Z,63.82
2023-08-08T19:01:56.551Z,63.91
2023-08-08T19:04:29.342Z,64.08
2023-08-08T19:07:02.803Z,63.89
2023-08-08T19:09:43.633Z,63.75
2023-08-08T19:12:16.334Z,63.99
2023-08-08T19:14:49.244Z,64.15
2023-08-08T19:17:22.318Z,64.22
2023-08-08T19:19:55.335Z,63.71
2023-08-08T19:22:28.049Z,63.80
2023-08-08T19:25:00.786Z,63.55
2023-08-08T19:27:33.655Z,64.29
2023-08-08T19:33:06.095Z,63.69
2023-08-08T19:35:39.205Z,63.87
2023-08-08T19:38:17.448Z,64.28
2023-08-08T19:40:58.784Z,64.02
2023-08-08T19:43:32.186Z,63.38
2023-08-08T19:46:05.335Z,64.00
2023-08-08T19:48:38.429Z,64.11
2023-08-08T19:51:11.271Z,64.59
2023-08-08T19:53:44.706Z,64.09
2023-08-08T19:56:47.776Z,64.39
2023-08-08T19:59:11.052Z,64.83
2023-08-08T20:01:43.833Z,64.01
2023-08-08T20:04:21.877Z,64.20
2023-08-08T20:06:54.857Z,64.53
2023-08-08T20:09:30.713Z,64.14
2023-08-08T20:12:05.928Z,64.57
2023-08-08T20:14:38.759Z,64.46
2023-08-08T20:17:26.859Z,64.49
2023-08-08T20:19:59.744Z,64.81
2023-08-08T20:22:47.309Z,64.35
2023-08-08T20:25:48.011Z,64.61
2023-08-08T20:28:24.001Z,64.39
2023-08-08T20:30:59.138Z,64.71
2023-08-08T20:33:31.943Z,64.84
2023-08-08T20:36:05.062Z,64.72
2023-08-08T20:38:37.793Z,64.75
2023-08-08T20:41:10.571Z,65.07
2023-08-08T20:43:43.291Z,64.91
2023-08-08T20:46:16.505Z,64.60
2023-08-08T20:49:06.068Z,64.75
2023-08-08T20:51:38.774Z,64.80
2023-08-08T20:54:11.823Z,64.55
2023-08-08T20:57:00.789Z,64.05
2023-08-08T20:59:37.313Z,64.98
2023-08-08T21:02:11.230Z,64.57
2023-08-08T21:07:48.685Z,64.29
2023-08-08T21:10:28.846Z,64.50
2023-08-08T21:13:10.421Z,64.74
2023-08-08T21:15:46.029Z,64.82
2023-08-08T21:18:18.775Z,64.67
2023-08-08T21:21:01.544Z,64.91
2023-08-08T21:23:35.211Z,64.88
2023-08-08T21:26:07.992Z,65.12
2023-08-08T21:28:40.711Z,65.23
2023-08-08T21:31:13.489Z,65.14
2023-08-08T21:33:46.373Z,65.35
2023-08-08T21:36:19.383Z,64.89
2023-08-08T21:38:52.022Z,64.55
2023-08-08T21:41:28.506Z,65.23
2023-08-08T21:44:01.283Z,65.27
2023-08-08T21:47:36.573Z,64.55
2023-08-08T21:49:29.807Z,64.83
2023-08-08T21:52:03.688Z,64.97
2023-08-08T21:54:37.512Z,64.79
2023-08-08T21:57:10.250Z,64.54
2023-08-08T21:59:45.472Z,65.11
2023-08-08T22:02:18.252Z,65.58
2023-08-08T22:04:52.333Z,65.05
2023-08-08T22:07:25.008Z,64.39
2023-08-08T22:09:57.698Z,65.07
2023-08-08T22:12:30.793Z,64.95
2023-08-08T22:15:04.626Z,65.06
2023-08-08T22:17:43.135Z,64.91
2023-08-08T22:20:21.374Z,65.01
2023-08-08T22:22:54.589Z,65.17
2023-08-08T22:25:34.168Z,65.75
2023-08-08T22:28:18.777Z,64.86
2023-08-08T22:30:53.338Z,65.62
2023-08-08T22:33:26.568Z,65.44
2023-08-08T22:36:02.453Z,65.21
2023-08-08T22:38:35.314Z,65.77
2023-08-08T22:41:16.627Z,64.89
2023-08-08T22:43:51.432Z,65.16
2023-08-08T22:46:24.848Z,65.37
2023-08-08T22:48:57.770Z,65.29
2023-08-08T22:51:30.613Z,65.08
2023-08-08T22:54:03.583Z,65.14
2023-08-08T22:56:48.583Z,64.99
2023-08-08T22:59:25.505Z,65.61
2023-08-08T23:01:58.276Z,65.43
2023-08-08T23:04:33.085Z,65.38
2023-08-08T23:07:06.019Z,65.55
2023-08-08T23:09:38.755Z,65.94
2023-08-08T23:12:11.542Z,66.00
2023-08-08T23:14:49.543Z,66.04
2023-08-08T23:17:22.590Z,65.48
2023-08-08T23:19:55.440Z,65.82
2023-08-08T23:22:28.264Z,65.90
2023-08-08T23:25:00.959Z,65.89
2023-08-08T23:27:35.020Z,65.66
2023-08-08T23:30:08.316Z,65.40
2023-08-08T23:32:54.613Z,65.83
2023-08-08T23:35:31.042Z,66.00
2023-08-08T23:38:19.286Z,65.83
2023-08-08T23:41:03.826Z,65.94
2023-08-08T23:43:36.607Z,65.48
2023-08-08T23:46:15.880Z,66.21
2023-08-08T23:49:03.757Z,65.88
2023-08-08T23:51:38.019Z,65.75
2023-08-08T23:54:16.870Z,66.32
2023-08-08T23:56:57.863Z,66.57
2023-08-08T23:59:44.941Z,66.28
